createdAt,value
2023-01-29T00:02:09.886Z,25.92
2023-01-29T00:04:36.750Z,24.98
2023-01-29T00:07:03.593Z,28.27
2023-01-29T00:09:31.963Z,27.73
2023-01-29T00:11:58.968Z,27.23
2023-01-29T00:14:27.557Z,25.10
2023-01-29T00:16:54.763Z,25.48
2023-01-29T00:19:21.808Z,26.08
2023-01-29T00:21:48.714Z,25.52
2023-01-29T00:24:15.570Z,25.15
2023-01-29T00:26:43.282Z,25.73
2023-01-29T00:29:10.358Z,26.55
2023-01-29T00:31:38.210Z,25.65
2023-01-29T00:34:05.080Z,25.65
2023-01-29T00:36:32.004Z,25.27
2023-01-29T00:39:02.469Z,26.42
2023-01-29T00:41:50.177Z,27.70
2023-01-29T00:44:36.705Z,24.58
2023-01-29T00:47:04.094Z,25.70
2023-01-29T00:49:31.224Z,23.98
2023-01-29T00:52:16.883Z,25.02
2023-01-29T00:54:43.769Z,25.52
2023-01-29T00:57:10.591Z,24.27
2023-01-29T00:59:37.745Z,23.70
2023-01-29T01:02:23.053Z,27.27
2023-01-29T01:04:50.037Z,26.45
2023-01-29T01:07:16.944Z,27.45
2023-01-29T01:10:02.268Z,26.08
2023-01-29T01:12:29.564Z,22.15
2023-01-29T01:14:56.446Z,25.23
2023-01-29T01:17:23.600Z,24.95
2023-01-29T01:19:50.641Z,26.13
2023-01-29T01:22:17.672Z,26.95
2023-01-29T01:24:44.619Z,26.83
2023-01-29T01:27:12.147Z,24.55
2023-01-29T01:29:39.074Z,24.00
2023-01-29T01:32:06.440Z,26.58
2023-01-29T01:34:33.455Z,22.42
2023-01-29T01:37:00.448Z,23.52
2023-01-29T01:39:27.327Z,24.95
2023-01-29T01:41:54.251Z,24.52
2023-01-29T01:44:59.442Z,23.42
2023-01-29T01:47:34.447Z,22.02
2023-01-29T01:50:08.837Z,23.55
2023-01-29T01:52:40.432Z,25.27
2023-01-29T01:55:08.603Z,26.88
2023-01-29T01:57:36.117Z,26.13
2023-01-29T02:00:11.149Z,24.67
2023-01-29T02:02:59.323Z,21.80
2023-01-29T02:05:45.492Z,26.77
2023-01-29T02:08:31.955Z,25.00
2023-01-29T02:10:58.887Z,26.45
2023-01-29T02:13:26.587Z,27.00
2023-01-29T02:15:53.453Z,24.65
2023-01-29T02:18:21.804Z,21.75
2023-01-29T02:21:01.137Z,27.95
2023-01-29T02:23:56.993Z,27.95
2023-01-29T02:27:01.399Z,26.15
2023-01-29T02:29:30.548Z,26.88
2023-01-29T02:32:21.838Z,26.42
2023-01-29T02:37:50.258Z,24.65
2023-01-29T02:40:31.368Z,27.42
2023-01-29T02:43:32.805Z,24.02
2023-01-29T02:46:16.500Z,24.88
2023-01-29T02:48:51.877Z,26.80
2023-01-29T02:51:24.280Z,24.27
2023-01-29T02:54:31.847Z,23.98
2023-01-29T02:57:16.226Z,23.60
2023-01-29T03:00:20.043Z,25.27
2023-01-29T03:02:54.420Z,26.23
2023-01-29T03:05:34.107Z,24.02
2023-01-29T03:08:10.150Z,27.52
2023-01-29T03:10:42.156Z,25.55
2023-01-29T03:13:16.521Z,25.52
2023-01-29T03:15:51.182Z,25.48
2023-01-29T03:18:20.683Z,27.10
2023-01-29T03:20:54.184Z,25.90
2023-01-29T03:23:51.625Z,26.23
2023-01-29T03:26:40.551Z,29.60
2023-01-29T03:29:27.527Z,32.90
2023-01-29T03:32:06.654Z,30.02
2023-01-29T03:34:42.055Z,24.88
2023-01-29T03:37:15.778Z,27.92
2023-01-29T03:39:42.856Z,28.92
2023-01-29T03:42:30.063Z,29.27
2023-01-29T03:45:32.274Z,23.42
2023-01-29T03:47:59.028Z,28.88
2023-01-29T03:50:26.004Z,26.35
2023-01-29T03:53:08.539Z,27.40
2023-01-29T03:55:42.449Z,28.50
2023-01-29T03:58:50.567Z,25.45
2023-01-29T04:01:33.484Z,28.13
2023-01-29T04:04:14.988Z,27.13
2023-01-29T04:06:45.735Z,25.70
2023-01-29T04:09:34.148Z,26.40
2023-01-29T04:12:09.081Z,27.63
2023-01-29T04:14:37.136Z,25.33
2023-01-29T04:17:12.380Z,29.25
2023-01-29T04:19:39.741Z,31.10
2023-01-29T04:22:15.510Z,28.60
2023-01-29T04:24:43.008Z,29.38
2023-01-29T04:27:09.786Z,26.83
2023-01-29T04:30:03.149Z,26.70
2023-01-29T04:32:48.122Z,26.38
2023-01-29T04:35:48.891Z,26.60
2023-01-29T04:38:33.897Z,25.77
2023-01-29T04:41:22.368Z,27.73
2023-01-29T04:44:11.248Z,24.52
2023-01-29T04:46:57.699Z,30.88
2023-01-29T04:49:34.423Z,27.48
2023-01-29T04:52:06.449Z,25.35
2023-01-29T04:54:57.757Z,26.40
2023-01-29T04:57:50.722Z,30.48
2023-01-29T05:00:28.641Z,30.00
2023-01-29T05:02:57.089Z,28.85
2023-01-29T05:05:23.910Z,30.85
2023-01-29T05:07:51.449Z,26.30
2023-01-29T05:10:20.994Z,26.80
2023-01-29T05:15:23.167Z,27.13
2023-01-29T05:17:50.037Z,29.60
2023-01-29T05:20:17.650Z,27.98
2023-01-29T05:22:45.820Z,31.02
2023-01-29T05:25:26.066Z,30.45
2023-01-29T05:28:14.042Z,27.42
2023-01-29T05:30:40.936Z,27.75
2023-01-29T05:33:13.846Z,27.38
2023-01-29T05:35:41.093Z,29.00
2023-01-29T05:38:08.365Z,28.48
2023-01-29T05:40:35.945Z,28.52
2023-01-29T05:43:02.874Z,26.85
2023-01-29T05:45:29.790Z,28.10
2023-01-29T05:48:00.370Z,26.45
2023-01-29T05:50:27.890Z,31.52
2023-01-29T05:53:02.011Z,29.02
2023-01-29T05:55:29.757Z,29.17
2023-01-29T05:57:56.716Z,26.40
2023-01-29T06:00:23.872Z,30.00
2023-01-29T06:02:50.843Z,27.58
2023-01-29T06:05:17.784Z,29.58
2023-01-29T06:07:45.647Z,30.88
2023-01-29T06:10:18.029Z,28.20
2023-01-29T06:12:45.684Z,30.33
2023-01-29T06:15:15.349Z,32.38
2023-01-29T06:17:42.912Z,27.65
2023-01-29T06:20:10.566Z,29.48
2023-01-29T06:22:37.454Z,28.02
2023-01-29T06:25:04.710Z,29.27
2023-01-29T06:27:31.559Z,28.67
2023-01-29T06:29:58.444Z,26.30
2023-01-29T06:32:25.350Z,29.13
2023-01-29T06:34:53.219Z,29.15
2023-01-29T06:37:20.020Z,30.02
2023-01-29T06:39:46.860Z,31.73
2023-01-29T06:42:13.655Z,31.92
2023-01-29T06:44:40.535Z,30.25
2023-01-29T06:47:07.352Z,31.85
2023-01-29T06:49:34.271Z,33.15
2023-01-29T06:52:01.159Z,29.60
2023-01-29T06:54:28.083Z,30.67
2023-01-29T06:56:56.241Z,31.50
2023-01-29T06:59:23.046Z,30.13
2023-01-29T07:01:49.989Z,31.42
2023-01-29T07:04:16.892Z,32.40
2023-01-29T07:06:44.368Z,32.80
2023-01-29T07:09:14.479Z,32.45
2023-01-29T07:11:41.575Z,32.03
2023-01-29T07:14:08.423Z,29.13
2023-01-29T07:16:35.389Z,32.28
2023-01-29T07:19:02.402Z,29.90
2023-01-29T07:21:29.549Z,30.98
2023-01-29T07:23:56.507Z,29.48
2023-01-29T07:26:23.364Z,30.48
2023-01-29T07:28:50.368Z,32.35
2023-01-29T07:31:17.339Z,29.10
2023-01-29T07:33:44.699Z,31.05
2023-01-29T07:36:13.028Z,30.17
2023-01-29T07:38:39.890Z,29.80
2023-01-29T07:41:07.152Z,29.27
2023-01-29T07:43:34.030Z,33.53
2023-01-29T07:46:05.195Z,30.30
2023-01-29T07:48:32.478Z,29.42
2023-01-29T07:50:59.685Z,30.88
2023-01-29T07:53:28.105Z,32.13
2023-01-29T07:55:55.330Z,29.33
2023-01-29T07:58:22.349Z,30.10
2023-01-29T08:00:49.558Z,33.28
2023-01-29T08:03:20.016Z,31.02
2023-01-29T08:05:47.171Z,30.63
2023-01-29T08:08:14.572Z,32.85
2023-01-29T08:10:41.912Z,28.67
2023-01-29T08:13:09.316Z,31.13
2023-01-29T08:15:38.761Z,30.67
2023-01-29T08:18:06.517Z,28.58
2023-01-29T08:20:33.604Z,28.52
2023-01-29T08:23:06.032Z,31.15
2023-01-29T08:25:33.872Z,28.88
2023-01-29T08:28:01.133Z,32.03
2023-01-29T08:30:30.671Z,29.52
2023-01-29T08:35:24.711Z,28.17
2023-01-29T08:37:59.996Z,31.92
2023-01-29T08:40:28.675Z,28.23
2023-01-29T08:43:04.065Z,30.20
2023-01-29T08:45:34.779Z,29.90
2023-01-29T08:48:02.189Z,30.05
2023-01-29T08:50:30.819Z,29.40
2023-01-29T08:52:59.407Z,29.30
2023-01-29T08:55:26.920Z,32.22
2023-01-29T08:57:53.971Z,31.42
2023-01-29T09:00:21.316Z,31.65
2023-01-29T09:02:48.267Z,30.50
2023-01-29T09:05:15.639Z,28.33
2023-01-29T09:07:43.084Z,30.40
2023-01-29T09:10:11.900Z,28.38
2023-01-29T09:12:38.869Z,35.05
2023-01-29T09:15:06.059Z,29.35
2023-01-29T09:17:32.881Z,28.65
2023-01-29T09:19:59.777Z,29.67
2023-01-29T09:22:26.627Z,28.70
2023-01-29T09:24:53.489Z,28.65
2023-01-29T09:27:20.326Z,30.15
2023-01-29T09:29:47.128Z,27.55
2023-01-29T09:32:14.678Z,31.17
2023-01-29T09:34:42.424Z,29.52
2023-01-29T09:37:09.382Z,30.58
2023-01-29T09:39:36.368Z,29.60
2023-01-29T09:42:21.307Z,31.40
2023-01-29T09:45:10.822Z,30.77
2023-01-29T09:47:37.805Z,31.30
2023-01-29T09:50:07.660Z,31.08
2023-01-29T09:52:48.119Z,31.83
2023-01-29T09:57:50.937Z,29.70
2023-01-29T10:00:24.596Z,29.50
2023-01-29T10:03:19.435Z,30.42
2023-01-29T10:06:14.187Z,30.88
2023-01-29T10:08:59.401Z,32.25
2023-01-29T10:11:38.357Z,31.13
2023-01-29T10:14:22.821Z,29.40
2023-01-29T10:17:07.031Z,29.92
2023-01-29T10:19:36.790Z,29.13
2023-01-29T10:22:25.663Z,28.85
2023-01-29T10:25:04.173Z,28.70
2023-01-29T10:27:38.595Z,29.55
2023-01-29T10:30:37.322Z,27.67
2023-01-29T10:33:07.141Z,29.55
2023-01-29T10:35:42.228Z,29.27
2023-01-29T10:38:46.104Z,28.90
2023-01-29T10:41:41.765Z,28.85
2023-01-29T10:44:23.319Z,28.73
2023-01-29T10:47:10.417Z,29.33
2023-01-29T10:50:08.213Z,26.73
2023-01-29T10:53:12.030Z,30.13
2023-01-29T10:55:43.862Z,31.23
2023-01-29T10:58:30.499Z,29.30
2023-01-29T11:00:58.367Z,28.08
2023-01-29T11:03:29.107Z,28.70
2023-01-29T11:06:11.817Z,30.05
2023-01-29T11:09:09.757Z,28.00
2023-01-29T11:11:43.223Z,27.73
2023-01-29T11:14:48.549Z,32.03
2023-01-29T11:17:21.026Z,31.33
2023-01-29T11:19:51.776Z,31.63
2023-01-29T11:22:20.768Z,30.08
2023-01-29T11:25:16.017Z,30.08
2023-01-29T11:27:52.460Z,27.40
2023-01-29T11:30:30.526Z,26.65
2023-01-29T11:33:08.203Z,29.38
2023-01-29T11:35:36.918Z,28.65
2023-01-29T11:38:09.059Z,28.93
2023-01-29T11:40:40.975Z,28.90
2023-01-29T11:43:19.859Z,28.88
2023-01-29T11:45:48.945Z,24.88
2023-01-29T11:48:19.638Z,28.63
2023-01-29T11:51:00.819Z,31.58
2023-01-29T11:53:42.035Z,26.38
2023-01-29T11:56:32.407Z,31.15
2023-01-29T11:59:02.244Z,28.03
2023-01-29T12:01:41.250Z,29.13
2023-01-29T12:04:24.447Z,28.15
2023-01-29T12:06:54.022Z,31.85
2023-01-29T12:11:49.368Z,29.52
2023-01-29T12:14:33.535Z,33.08
2023-01-29T12:17:25.587Z,29.92
2023-01-29T12:20:00.135Z,32.35
2023-01-29T12:22:39.742Z,30.92
2023-01-29T12:25:44.488Z,31.38
2023-01-29T12:28:28.268Z,30.38
2023-01-29T12:31:18.871Z,31.35
2023-01-29T12:33:57.403Z,32.08
2023-01-29T12:36:36.278Z,34.25
2023-01-29T12:39:03.097Z,32.88
2023-01-29T12:41:54.730Z,29.10
2023-01-29T12:44:42.465Z,31.58
2023-01-29T12:47:20.265Z,30.10
2023-01-29T12:49:53.003Z,34.53
2023-01-29T12:52:29.728Z,31.17
2023-01-29T12:55:06.567Z,30.70
2023-01-29T12:58:04.924Z,29.70
2023-01-29T13:00:44.874Z,31.45
2023-01-29T13:03:18.098Z,38.10
2023-01-29T13:05:57.523Z,34.15
2023-01-29T13:08:29.442Z,36.40
2023-01-29T13:10:58.611Z,39.20
2023-01-29T13:13:54.024Z,35.17
2023-01-29T13:16:26.051Z,34.90
2023-01-29T13:18:58.060Z,37.55
2023-01-29T13:21:31.132Z,34.78
2023-01-29T13:24:07.410Z,40.75
2023-01-29T13:26:34.494Z,37.92
2023-01-29T13:29:02.489Z,37.55
2023-01-29T13:31:39.145Z,35.80
2023-01-29T13:34:21.109Z,38.47
2023-01-29T13:37:12.579Z,41.35
2023-01-29T13:39:46.531Z,41.95
2023-01-29T13:42:20.005Z,42.45
2023-01-29T13:44:53.452Z,44.08
2023-01-29T13:47:30.955Z,48.40
2023-01-29T13:50:02.549Z,43.58
2023-01-29T13:52:43.100Z,43.60
2023-01-29T13:55:18.752Z,49.90
2023-01-29T13:57:48.938Z,58.45
2023-01-29T14:00:21.876Z,50.65
2023-01-29T14:03:11.239Z,49.80
2023-01-29T14:05:43.446Z,46.55
2023-01-29T14:08:13.121Z,51.25
2023-01-29T14:10:42.532Z,55.10
2023-01-29T14:13:18.694Z,43.65
2023-01-29T14:15:59.247Z,49.63
2023-01-29T14:18:28.242Z,48.30
2023-01-29T14:21:19.736Z,45.38
2023-01-29T14:23:52.467Z,50.00
2023-01-29T14:26:28.384Z,41.28
2023-01-29T14:29:25.610Z,46.58
2023-01-29T14:32:00.702Z,46.10
2023-01-29T14:34:31.653Z,46.72
2023-01-29T14:37:35.622Z,49.65
2023-01-29T14:40:24.231Z,44.92
2023-01-29T14:43:02.476Z,44.78
2023-01-29T14:45:41.952Z,43.35
2023-01-29T14:48:11.991Z,41.17
2023-01-29T14:50:46.622Z,44.70
2023-01-29T14:53:51.083Z,45.83
2023-01-29T14:56:37.195Z,40.95
2023-01-29T14:59:20.095Z,43.65
2023-01-29T15:01:58.791Z,50.47
2023-01-29T15:04:29.470Z,45.00
2023-01-29T15:07:14.571Z,45.53
2023-01-29T15:10:22.529Z,45.55
2023-01-29T15:12:58.256Z,48.35
2023-01-29T15:15:51.877Z,49.75
2023-01-29T15:18:28.715Z,47.15
2023-01-29T15:21:11.823Z,44.33
2023-01-29T15:23:40.819Z,46.53
2023-01-29T15:26:12.038Z,51.95
2023-01-29T15:28:39.842Z,50.80
2023-01-29T15:31:13.215Z,55.53
2023-01-29T15:33:44.719Z,46.58
2023-01-29T15:36:27.726Z,49.67
2023-01-29T15:39:09.972Z,50.75
2023-01-29T15:41:36.862Z,47.28
2023-01-29T15:44:03.869Z,48.58
2023-01-29T15:46:35.281Z,46.25
2023-01-29T15:49:08.549Z,46.08
2023-01-29T15:51:38.006Z,53.70
2023-01-29T15:54:09.607Z,48.17
2023-01-29T15:56:48.218Z,48.80
2023-01-29T15:59:22.479Z,45.33
2023-01-29T16:01:49.453Z,48.88
2023-01-29T16:04:29.003Z,47.75
2023-01-29T16:06:58.073Z,50.13
2023-01-29T16:09:27.286Z,50.28
2023-01-29T16:11:58.497Z,51.80
2023-01-29T16:14:26.800Z,49.80
2023-01-29T16:16:54.114Z,49.22
2023-01-29T16:19:24.341Z,51.58
2023-01-29T16:21:59.080Z,49.13
2023-01-29T16:24:26.908Z,45.28
2023-01-29T16:27:03.549Z,45.58
2023-01-29T16:29:32.903Z,49.33
2023-01-29T16:32:02.688Z,47.00
2023-01-29T16:34:33.935Z,48.92
2023-01-29T16:37:04.404Z,50.58
2023-01-29T16:39:38.828Z,48.30
2023-01-29T16:42:19.838Z,49.55
2023-01-29T16:44:46.709Z,49.55
2023-01-29T16:47:20.711Z,48.28
2023-01-29T16:49:53.840Z,46.15
2023-01-29T16:52:32.694Z,47.00
2023-01-29T16:55:02.368Z,45.65
2023-01-29T17:00:01.770Z,47.42
2023-01-29T17:02:36.396Z,42.38
2023-01-29T17:05:09.772Z,47.80
2023-01-29T17:07:37.792Z,46.03
2023-01-29T17:10:06.691Z,47.50
2023-01-29T17:12:36.279Z,48.03
2023-01-29T17:15:26.050Z,46.00
2023-01-29T17:17:53.014Z,46.47
2023-01-29T17:20:19.966Z,46.60
2023-01-29T17:22:47.319Z,45.97
2023-01-29T17:25:14.793Z,47.50
2023-01-29T17:27:45.166Z,44.70
2023-01-29T17:30:17.233Z,46.10
2023-01-29T17:32:47.320Z,42.50
2023-01-29T17:35:16.395Z,46.10
2023-01-29T17:37:44.425Z,47.03
2023-01-29T17:40:28.488Z,43.05
2023-01-29T17:42:55.353Z,46.92
2023-01-29T17:45:22.460Z,44.33
2023-01-29T17:47:50.294Z,44.10
2023-01-29T17:50:27.204Z,45.38
2023-01-29T17:52:54.230Z,43.42
2023-01-29T17:55:23.143Z,45.90
2023-01-29T17:57:50.076Z,47.45
2023-01-29T18:00:22.569Z,44.40
2023-01-29T18:02:49.701Z,48.05
2023-01-29T18:05:20.578Z,44.85
2023-01-29T18:07:48.092Z,47.60
2023-01-29T18:10:20.996Z,45.92
2023-01-29T18:12:48.114Z,43.63
2023-01-29T18:15:18.201Z,50.70
2023-01-29T18:17:45.656Z,46.90
2023-01-29T18:20:36.626Z,47.55
2023-01-29T18:23:04.347Z,48.75
2023-01-29T18:25:31.737Z,43.88
2023-01-29T18:27:58.602Z,46.53
2023-01-29T18:30:25.725Z,45.47
2023-01-29T18:32:53.397Z,44.75
2023-01-29T18:35:20.743Z,43.83
2023-01-29T18:37:51.483Z,42.72
2023-01-29T18:40:18.646Z,46.38
2023-01-29T18:42:47.096Z,52.17
2023-01-29T18:45:15.540Z,42.33
2023-01-29T18:47:42.739Z,48.00
2023-01-29T18:50:11.328Z,45.33
2023-01-29T18:52:38.200Z,47.65
2023-01-29T18:55:05.355Z,41.67
2023-01-29T18:58:29.578Z,49.05
2023-01-29T19:00:20.856Z,42.88
2023-01-29T19:02:47.782Z,47.83
2023-01-29T19:05:15.614Z,44.80
2023-01-29T19:07:42.597Z,48.65
2023-01-29T19:10:12.862Z,49.92
2023-01-29T19:12:42.231Z,46.05
2023-01-29T19:15:10.469Z,50.38
2023-01-29T19:17:38.340Z,48.92
2023-01-29T19:20:11.855Z,46.50
2023-01-29T19:22:40.335Z,51.42
2023-01-29T19:25:07.832Z,47.60
2023-01-29T19:27:34.892Z,52.78
2023-01-29T19:30:02.836Z,50.00
2023-01-29T19:32:30.180Z,49.88
2023-01-29T19:34:57.841Z,52.72
2023-01-29T19:37:25.530Z,51.63
2023-01-29T19:39:53.792Z,45.47
2023-01-29T19:42:21.607Z,49.58
2023-01-29T19:44:49.074Z,50.08
2023-01-29T19:47:16.104Z,51.65
2023-01-29T19:49:43.156Z,53.60
2023-01-29T19:52:14.946Z,50.22
2023-01-29T19:54:48.868Z,49.63
2023-01-29T19:57:15.680Z,49.90
2023-01-29T19:59:45.659Z,48.67
2023-01-29T20:02:12.792Z,47.85
2023-01-29T20:04:39.643Z,49.22
2023-01-29T20:07:06.513Z,50.20
2023-01-29T20:09:33.423Z,47.28
2023-01-29T20:12:00.297Z,52.10
2023-01-29T20:14:27.460Z,49.83
2023-01-29T20:16:54.305Z,47.05
2023-01-29T20:19:21.168Z,45.97
2023-01-29T20:21:51.160Z,45.25
2023-01-29T20:24:18.048Z,47.15
2023-01-29T20:26:45.091Z,45.42
2023-01-29T20:29:12.072Z,46.53
2023-01-29T20:31:39.083Z,46.83
2023-01-29T20:34:06.094Z,48.65
2023-01-29T20:36:33.048Z,46.10
2023-01-29T20:38:59.993Z,47.03
2023-01-29T20:41:27.116Z,47.28
2023-01-29T20:43:54.350Z,47.95
2023-01-29T20:46:21.319Z,43.80
2023-01-29T20:48:49.462Z,47.60
2023-01-29T20:51:18.186Z,41.50
2023-01-29T20:53:46.908Z,45.37
2023-01-29T20:56:16.108Z,42.55
2023-01-29T20:58:43.583Z,45.05
2023-01-29T21:01:12.097Z,43.17
2023-01-29T21:03:40.228Z,43.53
2023-01-29T21:06:08.833Z,43.15
2023-01-29T21:08:36.776Z,42.40
2023-01-29T21:11:05.011Z,40.85
2023-01-29T21:13:31.905Z,43.00
2023-01-29T21:15:59.771Z,41.63
2023-01-29T21:18:27.002Z,42.63
2023-01-29T21:20:54.544Z,39.00
2023-01-29T21:23:21.891Z,45.70
2023-01-29T21:25:48.843Z,43.28
2023-01-29T21:28:16.155Z,43.20
2023-01-29T21:30:43.844Z,44.25
2023-01-29T21:33:10.716Z,44.40
2023-01-29T21:35:38.445Z,46.95
2023-01-29T21:38:05.493Z,47.55
2023-01-29T21:40:32.592Z,45.65
2023-01-29T21:43:11.649Z,45.97
2023-01-29T21:45:39.877Z,43.40
2023-01-29T21:48:07.309Z,45.63
2023-01-29T21:50:34.841Z,41.90
2023-01-29T21:53:01.782Z,42.80
2023-01-29T21:55:29.004Z,44.42
2023-01-29T21:57:55.897Z,45.80
2023-01-29T22:00:22.769Z,41.60
2023-01-29T22:02:51.484Z,43.15
2023-01-29T22:05:20.145Z,43.27
2023-01-29T22:07:50.527Z,46.90
2023-01-29T22:10:18.872Z,47.75
2023-01-29T22:12:46.988Z,45.75
2023-01-29T22:15:14.673Z,47.47
2023-01-29T22:17:42.229Z,43.75
2023-01-29T22:20:10.848Z,43.00
2023-01-29T22:22:37.814Z,45.85
2023-01-29T22:25:05.439Z,43.83
2023-01-29T22:27:33.608Z,42.50
2023-01-29T22:30:00.536Z,42.00
2023-01-29T22:32:27.952Z,45.58
2023-01-29T22:34:54.834Z,44.00
2023-01-29T22:37:21.794Z,46.22
2023-01-29T22:39:48.696Z,45.33
2023-01-29T22:42:15.461Z,43.85
2023-01-29T22:44:42.772Z,46.13
2023-01-29T22:47:09.633Z,42.63
2023-01-29T22:49:36.497Z,43.80
2023-01-29T22:52:12.358Z,45.78
2023-01-29T22:54:40.675Z,44.15
2023-01-29T22:57:12.906Z,43.80
2023-01-29T22:59:40.091Z,37.88
2023-01-29T23:02:07.812Z,45.67
2023-01-29T23:04:34.766Z,41.40
2023-01-29T23:07:01.753Z,42.25
2023-01-29T23:09:28.816Z,45.15
2023-01-29T23:11:55.649Z,44.00
2023-01-29T23:14:22.506Z,43.83
2023-01-29T23:16:49.469Z,44.03
2023-01-29T23:19:16.353Z,45.50
2023-01-29T23:21:43.465Z,43.83
2023-01-29T23:24:10.917Z,46.17
2023-01-29T23:26:56.350Z,54.97
2023-01-29T23:29:23.306Z,47.00
2023-01-29T23:31:50.201Z,45.80
2023-01-29T23:34:17.363Z,44.70
2023-01-29T23:36:46.206Z,45.65
2023-01-29T23:39:13.054Z,43.63
2023-01-29T23:41:39.988Z,43.47
2023-01-29T23:44:07.018Z,50.28
2023-01-29T23:46:34.034Z,47.33
2023-01-29T23:49:01.071Z,45.80
2023-01-29T23:51:28.082Z,49.30
2023-01-29T23:53:55.046Z,49.25
2023-01-29T23:56:21.919Z,47.80
2023-01-29T23:58:53.139Z,49.88
